createdAt,value
2022-08-14T00:03:01.535Z,22.3
2022-08-14T00:08:01.580Z,22.0
2022-08-14T00:13:08.334Z,22.7
2022-08-14T00:18:01.097Z,22.6
2022-08-14T00:23:17.813Z,23.2
2022-08-14T00:33:01.746Z,23.4
2022-08-14T00:38:01.284Z,21.6
2022-08-14T00:43:01.505Z,22.1
2022-08-14T00:48:02.423Z,23.3
2022-08-14T00:53:01.566Z,23.7
2022-08-14T00:58:01.564Z,23.9
2022-08-14T01:03:01.564Z,25.0
2022-08-14T01:08:01.494Z,24.7
2022-08-14T01:13:01.541Z,23.1
2022-08-14T01:18:01.562Z,23.7
2022-08-14T01:23:01.553Z,23.4
2022-08-14T01:28:01.558Z,23.1
2022-08-14T01:38:01.538Z,22.8
2022-08-14T01:43:02.642Z,22.2
2022-08-14T01:48:03.208Z,22.3
2022-08-14T01:53:01.945Z,23.0
2022-08-14T01:58:19.305Z,23.8
2022-08-14T02:03:01.613Z,24.2
2022-08-14T02:08:08.655Z,24.4
2022-08-14T02:13:01.551Z,24.2
2022-08-14T02:18:03.481Z,23.5
2022-08-14T02:23:02.438Z,23.4
2022-08-14T02:28:19.976Z,24.0
2022-08-14T02:33:02.223Z,24.4
2022-08-14T02:38:04.084Z,25.6
2022-08-14T02:43:02.525Z,27.4
2022-08-14T02:48:01.529Z,27.0
2022-08-14T02:53:02.913Z,26.7
2022-08-14T02:58:06.662Z,26.2
2022-08-14T03:03:01.814Z,24.8
2022-08-14T03:08:01.609Z,23.4
2022-08-14T03:13:01.521Z,24.5
2022-08-14T03:18:01.941Z,25.2
2022-08-14T03:23:02.870Z,26.3
2022-08-14T03:28:02.577Z,26.6
2022-08-14T03:33:01.517Z,26.9
2022-08-14T03:39:11.222Z,26.6
2022-08-14T03:43:01.526Z,26.8
2022-08-14T03:48:01.730Z,26.4
2022-08-14T03:53:01.721Z,24.4
2022-08-14T03:58:01.325Z,25.0
2022-08-14T04:08:08.674Z,25.7
2022-08-14T04:13:03.353Z,25.2
2022-08-14T04:18:01.183Z,26.9
2022-08-14T04:23:01.502Z,26.7
2022-08-14T04:28:03.502Z,27.1
2022-08-14T04:33:06.479Z,25.4
2022-08-14T04:38:01.501Z,26.0
2022-08-14T04:43:01.498Z,27.1
2022-08-14T04:53:01.994Z,26.8
2022-08-14T04:58:01.509Z,28.2
2022-08-14T05:03:01.508Z,28.7
2022-08-14T05:08:10.066Z,28.4
2022-08-14T05:13:18.556Z,27.9
2022-08-14T05:18:37.259Z,27.8
2022-08-14T05:23:01.553Z,28.6
2022-08-14T05:28:10.981Z,28.7
2022-08-14T05:33:01.534Z,29.4
2022-08-14T05:38:30.947Z,29.9
2022-08-14T05:43:09.249Z,29.8
2022-08-14T05:48:04.659Z,29.3
2022-08-14T05:53:01.774Z,30.3
2022-08-14T05:58:04.007Z,30.4
2022-08-14T06:03:10.445Z,31.7
2022-08-14T06:08:21.985Z,32.8
2022-08-14T06:13:01.356Z,33.0
2022-08-14T06:23:01.328Z,32.6
2022-08-14T06:28:04.802Z,32.2
2022-08-14T06:33:03.797Z,31.0
2022-08-14T06:38:05.397Z,30.6
2022-08-14T06:43:05.608Z,30.1
2022-08-14T06:48:01.357Z,31.0
2022-08-14T06:53:01.352Z,31.8
2022-08-14T06:58:09.634Z,32.4
2022-08-14T07:03:01.835Z,30.9
2022-08-14T07:08:02.490Z,29.4
2022-08-14T07:13:06.572Z,28.1
2022-08-14T07:18:01.306Z,26.5
2022-08-14T07:23:21.926Z,26.8
2022-08-14T07:28:07.562Z,27.0
2022-08-14T07:33:01.556Z,26.0
2022-08-14T07:43:16.848Z,24.9
2022-08-14T07:48:01.542Z,24.5
2022-08-14T07:53:01.542Z,23.5
2022-08-14T07:58:21.266Z,23.8
2022-08-14T08:13:01.550Z,23.0
2022-08-14T08:18:03.894Z,24.1
2022-08-14T08:23:07.342Z,24.5
2022-08-14T08:28:03.524Z,23.8
2022-08-14T08:33:05.507Z,23.4
2022-08-14T08:39:14.335Z,23.0
2022-08-14T08:43:03.752Z,21.7
2022-08-14T08:48:01.572Z,21.8
2022-08-14T08:53:02.001Z,21.9
2022-08-14T08:59:01.531Z,21.6
2022-08-14T09:09:01.538Z,22.2
2022-08-14T09:14:01.532Z,22.5
2022-08-14T09:19:02.502Z,22.0
2022-08-14T09:24:27.669Z,22.6
2022-08-14T09:29:01.225Z,21.8
2022-08-14T09:34:39.714Z,20.8
2022-08-14T09:39:06.539Z,19.4
2022-08-14T09:44:13.794Z,20.2
2022-08-14T09:49:02.067Z,19.7
2022-08-14T09:54:22.906Z,21.8
2022-08-14T09:59:11.083Z,23.1
2022-08-14T10:04:05.280Z,23.4
2022-08-14T10:09:01.700Z,22.2
2022-08-14T10:19:01.513Z,20.9
2022-08-14T10:25:16.904Z,20.3
2022-08-14T10:30:12.167Z,20.2
2022-08-14T10:35:01.434Z,20.8
2022-08-14T10:40:05.366Z,21.2
2022-08-14T10:45:19.544Z,20.4
2022-08-14T10:50:01.354Z,20.7
2022-08-14T10:55:01.344Z,21.4
2022-08-14T11:00:20.520Z,22.4
2022-08-14T11:05:07.796Z,21.8
2022-08-14T11:10:06.228Z,22.4
2022-08-14T11:15:03.553Z,22.5
2022-08-14T11:20:01.311Z,22.0
2022-08-14T11:25:01.324Z,20.9
2022-08-14T11:30:49.647Z,21.4
2022-08-14T11:35:01.259Z,21.0
2022-08-14T11:40:01.323Z,20.2
2022-08-14T11:45:04.726Z,20.0
2022-08-14T11:50:25.287Z,20.2
2022-08-14T11:55:08.405Z,19.2
2022-08-14T12:00:05.943Z,19.5
2022-08-14T12:05:01.337Z,19.8
2022-08-14T12:10:01.007Z,20.1
2022-08-14T12:15:02.807Z,20.2
2022-08-14T12:20:03.112Z,20.8
2022-08-14T12:25:01.726Z,21.4
2022-08-14T12:30:02.852Z,21.7
2022-08-14T12:35:03.089Z,22.3
2022-08-14T12:40:12.696Z,21.6
2022-08-14T12:45:05.712Z,21.4
2022-08-14T12:50:01.390Z,21.0
2022-08-14T12:55:06.197Z,21.3
2022-08-14T13:00:23.262Z,20.8
2022-08-14T13:05:01.593Z,22.0
2022-08-14T13:10:12.634Z,23.2
2022-08-14T13:15:12.058Z,22.8
2022-08-14T13:20:26.644Z,22.9
2022-08-14T13:25:01.451Z,21.9
2022-08-14T13:30:24.768Z,22.3
2022-08-14T13:35:01.527Z,22.4
2022-08-14T13:40:01.642Z,22.9
2022-08-14T13:45:03.287Z,23.5
2022-08-14T13:50:01.604Z,24.5
2022-08-14T13:55:01.538Z,22.9
2022-08-14T14:00:04.927Z,21.7
2022-08-14T14:05:01.646Z,21.3
2022-08-14T14:10:07.595Z,19.7
2022-08-14T14:15:11.495Z,19.8
2022-08-14T14:20:01.561Z,20.8
2022-08-14T14:25:02.040Z,20.7
2022-08-14T14:31:06.238Z,21.6
2022-08-14T14:36:01.322Z,22.0
2022-08-14T14:41:01.743Z,22.7
2022-08-14T14:46:03.163Z,23.0
2022-08-14T14:51:02.157Z,23.5
2022-08-14T14:56:48.656Z,22.8
2022-08-14T15:01:01.503Z,23.5
2022-08-14T15:06:01.450Z,23.0
2022-08-14T15:11:01.638Z,22.8
2022-08-14T15:16:01.021Z,22.4
2022-08-14T15:26:01.474Z,22.5
2022-08-14T15:31:04.024Z,21.6
2022-08-14T15:36:02.827Z,20.9
2022-08-14T15:41:01.755Z,21.4
2022-08-14T15:46:05.078Z,20.5
2022-08-14T15:51:02.064Z,20.1
2022-08-14T15:56:03.572Z,20.0
2022-08-14T16:01:01.112Z,21.0
2022-08-14T16:06:01.143Z,21.3
2022-08-14T16:11:01.603Z,23.0
2022-08-14T16:16:34.058Z,22.9
2022-08-14T16:21:01.774Z,23.7
2022-08-14T16:26:04.843Z,24.0
2022-08-14T16:31:01.542Z,24.2
2022-08-14T16:36:02.758Z,24.7
2022-08-14T16:41:03.888Z,25.8
2022-08-14T16:46:01.561Z,26.0
2022-08-14T16:51:01.640Z,25.2
2022-08-14T16:56:01.526Z,24.8
2022-08-14T17:01:01.618Z,25.0
2022-08-14T17:06:02.013Z,26.2
2022-08-14T17:11:01.530Z,27.8
2022-08-14T17:16:01.533Z,30.5
2022-08-14T17:21:02.662Z,32.7
2022-08-14T17:26:01.567Z,39.3
2022-08-14T17:36:10.706Z,37.8
2022-08-14T17:41:16.980Z,36.3
2022-08-14T18:05:09.363Z,24.6
2022-08-14T18:10:52.792Z,26.5
2022-08-14T18:15:18.148Z,25.4
2022-08-14T18:20:01.685Z,25.6
2022-08-14T18:25:02.126Z,25.8
2022-08-14T18:31:17.837Z,26.4
2022-08-14T18:36:46.881Z,26.0
2022-08-14T18:41:18.143Z,26.6
2022-08-14T18:46:01.515Z,25.8
2022-08-14T18:51:01.837Z,24.8
2022-08-14T19:01:20.337Z,24.2
2022-08-14T19:06:01.545Z,23.6
2022-08-14T19:11:01.588Z,24.3
2022-08-14T19:16:01.589Z,25.1
2022-08-14T19:21:01.541Z,25.8
2022-08-14T19:26:01.514Z,25.6
2022-08-14T19:36:01.559Z,24.8
2022-08-14T19:41:01.799Z,25.9
2022-08-14T19:46:01.531Z,24.7
2022-08-14T19:51:01.422Z,25.6
2022-08-14T19:56:01.621Z,26.1
2022-08-14T20:01:01.601Z,27.1
2022-08-14T20:06:01.542Z,24.7
2022-08-14T20:11:15.924Z,24.8
2022-08-14T20:16:01.507Z,24.4
2022-08-14T20:21:01.781Z,25.4
2022-08-14T20:26:01.509Z,23.9
2022-08-14T20:31:01.503Z,24.8
2022-08-14T20:36:01.463Z,24.5
2022-08-14T20:41:01.307Z,24.6
2022-08-14T20:46:01.373Z,23.6
2022-08-14T20:51:01.360Z,24.1
2022-08-14T20:57:01.340Z,24.4
2022-08-14T21:02:01.297Z,25.0
2022-08-14T21:07:23.608Z,24.6
2022-08-14T21:12:02.558Z,24.4
2022-08-14T21:17:01.330Z,25.2
2022-08-14T21:22:01.370Z,26.0
2022-08-14T21:27:04.569Z,26.8
2022-08-14T21:32:20.458Z,27.1
2022-08-14T21:42:01.402Z,27.2
2022-08-14T21:47:01.329Z,26.4
2022-08-14T21:52:02.635Z,24.8
2022-08-14T21:57:02.114Z,25.4
2022-08-14T22:02:04.992Z,25.9
2022-08-14T22:07:02.589Z,26.2
2022-08-14T22:12:01.416Z,25.7
2022-08-14T22:17:11.883Z,26.3
2022-08-14T22:22:00.936Z,26.0
2022-08-14T22:27:01.226Z,25.5
2022-08-14T22:32:01.450Z,25.2
2022-08-14T22:37:01.588Z,25.1
2022-08-14T22:42:01.701Z,24.2
2022-08-14T22:47:01.605Z,24.6
2022-08-14T22:52:01.592Z,24.4
2022-08-14T22:57:01.559Z,24.3
2022-08-14T23:02:03.687Z,25.2
2022-08-14T23:07:04.582Z,26.1
2022-08-14T23:12:01.545Z,25.2
2022-08-14T23:17:01.553Z,24.8
2022-08-14T23:22:01.564Z,24.9
2022-08-14T23:27:01.584Z,24.8
2022-08-14T23:32:01.574Z,25.1
2022-08-14T23:37:03.768Z,25.4
2022-08-14T23:42:08.336Z,26.6
2022-08-14T23:47:03.581Z,27.5
2022-08-14T23:52:51.802Z,28.4
2022-08-14T23:57:02.824Z,28.9
